createdAt,value
2017-06-25T00:00:49.378Z,18.40
2017-06-25T00:01:45.618Z,18.38
2017-06-25T00:02:41.862Z,18.39
2017-06-25T00:03:38.139Z,18.37
2017-06-25T00:04:34.374Z,18.38
2017-06-25T00:05:30.614Z,18.35
2017-06-25T00:06:26.857Z,18.34
2017-06-25T00:07:23.102Z,18.34
2017-06-25T00:08:19.362Z,18.32
2017-06-25T00:09:15.610Z,18.31
2017-06-25T00:10:11.854Z,18.30
2017-06-25T00:11:08.098Z,18.27
2017-06-25T00:12:04.362Z,18.26
2017-06-25T00:13:00.605Z,18.24
2017-06-25T00:13:56.841Z,18.23
2017-06-25T00:14:53.115Z,18.23
2017-06-25T00:15:49.482Z,18.20
2017-06-25T00:16:45.713Z,18.19
2017-06-25T00:17:41.950Z,18.18
2017-06-25T00:18:38.194Z,18.16
2017-06-25T00:19:34.434Z,18.15
2017-06-25T00:20:30.709Z,18.13
2017-06-25T00:21:26.947Z,18.12
2017-06-25T00:22:23.189Z,18.12
2017-06-25T00:23:19.425Z,18.08
2017-06-25T00:24:15.654Z,18.07
2017-06-25T00:25:11.906Z,18.08
2017-06-25T00:26:08.162Z,18.05
2017-06-25T00:27:04.394Z,18.03
2017-06-25T00:28:00.626Z,18.03
2017-06-25T00:28:56.870Z,18.00
2017-06-25T00:29:53.110Z,18.00
2017-06-25T00:30:49.366Z,18.00
2017-06-25T00:31:45.601Z,17.96
2017-06-25T00:32:41.850Z,17.96
2017-06-25T00:33:38.086Z,17.94
2017-06-25T00:34:34.325Z,17.93
2017-06-25T00:35:30.565Z,17.92
2017-06-25T00:36:26.818Z,17.91
2017-06-25T00:37:23.058Z,17.89
2017-06-25T00:38:19.307Z,17.89
2017-06-25T00:39:15.553Z,17.88
2017-06-25T00:40:11.802Z,17.88
2017-06-25T00:41:08.070Z,17.86
2017-06-25T00:42:04.310Z,17.86
2017-06-25T00:43:00.550Z,17.85
2017-06-25T00:43:56.799Z,17.84
2017-06-25T00:44:53.046Z,17.84
2017-06-25T00:45:49.285Z,17.82
2017-06-25T00:46:45.563Z,17.82
2017-06-25T00:47:41.807Z,17.81
2017-06-25T00:48:38.054Z,17.82
2017-06-25T00:49:34.321Z,17.81
2017-06-25T00:50:30.570Z,17.80
2017-06-25T00:51:26.817Z,17.79
2017-06-25T00:52:23.081Z,17.79
2017-06-25T00:53:24.018Z,17.79
2017-06-25T00:54:24.963Z,17.77
2017-06-25T00:55:35.909Z,17.77
2017-06-25T00:56:32.146Z,17.77
2017-06-25T00:57:28.410Z,17.76
2017-06-25T00:58:24.661Z,17.75
2017-06-25T00:59:20.906Z,17.75
2017-06-25T01:00:17.176Z,17.72
2017-06-25T01:01:13.426Z,17.72
2017-06-25T01:02:09.682Z,17.70
2017-06-25T01:03:05.941Z,17.70
2017-06-25T01:04:02.182Z,17.69
2017-06-25T01:04:58.424Z,17.69
2017-06-25T01:05:54.654Z,17.67
2017-06-25T01:06:50.899Z,17.67
2017-06-25T01:07:47.171Z,17.66
2017-06-25T01:08:43.433Z,17.64
2017-06-25T01:09:39.682Z,17.63
2017-06-25T01:10:35.918Z,17.62
2017-06-25T01:11:32.146Z,17.60
2017-06-25T01:12:28.387Z,17.60
2017-06-25T01:13:24.646Z,17.59
2017-06-25T01:14:20.890Z,17.58
2017-06-25T01:15:17.121Z,17.57
2017-06-25T01:16:13.362Z,17.58
2017-06-25T01:17:09.617Z,17.56
2017-06-25T01:18:05.855Z,17.55
2017-06-25T01:19:02.135Z,17.56
2017-06-25T01:19:58.376Z,17.54
2017-06-25T01:20:54.610Z,17.53
2017-06-25T01:21:50.846Z,17.52
2017-06-25T01:22:47.090Z,17.51
2017-06-25T01:23:43.330Z,17.50
2017-06-25T01:24:39.594Z,17.49
2017-06-25T01:25:35.842Z,17.49
2017-06-25T01:26:32.082Z,17.47
2017-06-25T01:27:28.322Z,17.47
2017-06-25T01:28:24.554Z,17.46
2017-06-25T01:29:20.822Z,17.43
2017-06-25T01:30:17.057Z,17.44
2017-06-25T01:31:13.298Z,17.42
2017-06-25T01:32:09.538Z,17.41
2017-06-25T01:33:05.766Z,17.39
2017-06-25T01:34:02.002Z,17.37
2017-06-25T01:34:58.254Z,17.35
2017-06-25T01:35:54.490Z,17.34
2017-06-25T01:36:50.726Z,17.32
2017-06-25T01:37:46.977Z,17.32
2017-06-25T01:38:43.213Z,17.30
2017-06-25T01:39:39.474Z,17.27
2017-06-25T01:40:35.710Z,17.26
2017-06-25T01:41:31.954Z,17.25
2017-06-25T01:42:28.190Z,17.23
2017-06-25T01:43:24.442Z,17.22
2017-06-25T01:44:20.687Z,17.21
2017-06-25T01:45:16.942Z,17.18
2017-06-25T01:46:13.185Z,17.17
2017-06-25T01:47:09.422Z,17.16
2017-06-25T01:48:05.658Z,17.14
2017-06-25T01:49:01.898Z,17.13
2017-06-25T01:49:58.138Z,17.11
2017-06-25T01:50:54.398Z,17.09
2017-06-25T01:51:50.634Z,17.08
2017-06-25T01:52:46.871Z,17.06
2017-06-25T01:53:43.098Z,17.06
2017-06-25T01:54:39.348Z,17.03
2017-06-25T01:55:35.589Z,17.00
2017-06-25T01:56:31.817Z,17.00
2017-06-25T01:57:28.062Z,16.98
2017-06-25T01:58:24.302Z,16.97
2017-06-25T01:59:20.546Z,16.95
2017-06-25T02:00:16.793Z,16.94
2017-06-25T02:01:13.058Z,16.92
2017-06-25T02:02:09.295Z,16.90
2017-06-25T02:03:05.523Z,16.89
2017-06-25T02:04:01.762Z,16.88
2017-06-25T02:04:58.002Z,16.87
2017-06-25T02:05:54.234Z,16.86
2017-06-25T02:06:50.502Z,16.83
2017-06-25T02:07:46.730Z,16.82
2017-06-25T02:08:42.958Z,16.80
2017-06-25T02:09:39.214Z,16.80
2017-06-25T02:10:35.447Z,16.77
2017-06-25T02:11:31.686Z,16.76
2017-06-25T02:12:27.942Z,16.74
2017-06-25T02:13:24.174Z,16.73
2017-06-25T02:14:20.418Z,16.71
2017-06-25T02:15:16.649Z,16.69
2017-06-25T02:16:12.881Z,16.66
2017-06-25T02:17:09.146Z,16.65
2017-06-25T02:18:05.386Z,16.63
2017-06-25T02:19:01.623Z,16.62
2017-06-25T02:19:57.858Z,16.60
2017-06-25T02:20:54.097Z,16.58
2017-06-25T02:21:50.339Z,16.56
2017-06-25T02:22:46.595Z,16.55
2017-06-25T02:23:42.838Z,16.54
2017-06-25T02:24:39.070Z,16.52
2017-06-25T02:25:35.310Z,16.50
2017-06-25T02:26:31.535Z,16.49
2017-06-25T02:27:27.810Z,16.48
2017-06-25T02:28:24.042Z,16.46
2017-06-25T02:29:20.278Z,16.45
2017-06-25T02:30:16.510Z,16.44
2017-06-25T02:31:12.746Z,16.43
2017-06-25T02:32:08.983Z,16.40
2017-06-25T02:33:05.238Z,16.40
2017-06-25T02:34:01.474Z,16.39
2017-06-25T02:34:57.714Z,16.37
2017-06-25T02:35:53.951Z,16.34
2017-06-25T02:36:50.190Z,16.32
2017-06-25T02:37:46.462Z,16.30
2017-06-25T02:38:42.690Z,16.29
2017-06-25T02:39:38.926Z,16.26
2017-06-25T02:40:35.175Z,16.26
2017-06-25T02:41:31.418Z,16.24
2017-06-25T02:42:27.663Z,16.24
2017-06-25T02:43:23.918Z,16.22
2017-06-25T02:44:20.159Z,16.21
2017-06-25T02:45:16.396Z,16.20
2017-06-25T02:46:12.642Z,16.19
2017-06-25T02:47:08.878Z,16.18
2017-06-25T02:48:05.122Z,16.16
2017-06-25T02:49:01.374Z,16.16
2017-06-25T02:49:57.610Z,16.15
2017-06-25T02:50:53.853Z,16.13
2017-06-25T02:51:50.090Z,16.13
2017-06-25T02:52:46.321Z,16.12
2017-06-25T02:53:42.579Z,16.11
2017-06-25T02:54:38.833Z,16.10
2017-06-25T02:55:35.067Z,16.09
2017-06-25T02:56:31.306Z,16.08
2017-06-25T02:57:27.530Z,16.08
2017-06-25T02:58:23.772Z,16.08
2017-06-25T02:59:20.029Z,16.08
2017-06-25T03:00:16.262Z,16.07
2017-06-25T03:01:12.502Z,16.06
2017-06-25T03:02:08.742Z,16.06
2017-06-25T03:03:04.983Z,16.05
2017-06-25T03:04:01.214Z,16.05
2017-06-25T03:04:57.471Z,16.05
2017-06-25T03:05:53.702Z,16.04
2017-06-25T03:06:49.955Z,16.04
2017-06-25T03:07:46.194Z,16.03
2017-06-25T03:08:42.434Z,16.03
2017-06-25T03:09:38.690Z,16.02
2017-06-25T03:10:34.934Z,16.03
2017-06-25T03:11:31.174Z,16.02
2017-06-25T03:12:27.406Z,16.02
2017-06-25T03:13:23.642Z,16.02
2017-06-25T03:14:19.878Z,16.02
2017-06-25T03:15:16.122Z,16.04
2017-06-25T03:16:12.361Z,16.03
2017-06-25T03:17:08.593Z,16.03
2017-06-25T03:18:04.835Z,16.03
2017-06-25T03:19:01.070Z,16.03
2017-06-25T03:19:57.314Z,16.02
2017-06-25T03:20:53.587Z,16.02
2017-06-25T03:21:49.827Z,16.03
2017-06-25T03:22:46.064Z,16.03
2017-06-25T03:23:42.319Z,16.05
2017-06-25T03:24:38.566Z,16.04
2017-06-25T03:25:34.802Z,16.03
2017-06-25T03:26:31.058Z,16.04
2017-06-25T03:27:27.290Z,16.04
2017-06-25T03:28:23.542Z,16.04
2017-06-25T03:29:19.793Z,16.04
2017-06-25T03:30:16.030Z,16.04
2017-06-25T03:31:12.297Z,16.04
2017-06-25T03:32:08.531Z,16.03
2017-06-25T03:33:04.767Z,16.02
2017-06-25T03:34:00.990Z,16.02
2017-06-25T03:34:57.234Z,16.01
2017-06-25T03:35:53.494Z,16.01
2017-06-25T03:36:49.741Z,16.01
2017-06-25T03:37:45.974Z,16.01
2017-06-25T03:38:42.217Z,16.02
2017-06-25T03:39:38.454Z,16.02
2017-06-25T03:40:34.700Z,16.02
2017-06-25T03:41:30.942Z,16.02
2017-06-25T03:42:27.206Z,16.01
2017-06-25T03:43:23.443Z,16.02
2017-06-25T03:44:19.686Z,16.02
2017-06-25T03:45:15.922Z,16.03
2017-06-25T03:46:12.160Z,16.05
2017-06-25T03:47:08.426Z,16.06
2017-06-25T03:48:04.663Z,16.07
2017-06-25T03:49:00.906Z,16.07
2017-06-25T03:49:57.138Z,16.09
2017-06-25T03:50:53.374Z,16.09
2017-06-25T03:51:49.609Z,16.12
2017-06-25T03:52:45.876Z,16.12
2017-06-25T03:53:42.110Z,16.12
2017-06-25T03:54:38.346Z,16.15
2017-06-25T03:55:34.586Z,16.16
2017-06-25T03:56:30.821Z,16.15
2017-06-25T03:57:27.067Z,16.18
2017-06-25T03:58:23.327Z,16.19
2017-06-25T03:59:19.579Z,16.20
2017-06-25T04:00:15.806Z,16.19
2017-06-25T04:01:12.108Z,16.21
2017-06-25T04:02:08.375Z,16.21
2017-06-25T04:03:04.618Z,16.23
2017-06-25T04:04:00.857Z,16.23
2017-06-25T04:04:57.102Z,16.24
2017-06-25T04:05:53.338Z,16.24
2017-06-25T04:06:51.634Z,16.24
2017-06-25T04:07:52.854Z,16.24
2017-06-25T04:08:49.129Z,16.25
2017-06-25T04:09:45.402Z,16.27
2017-06-25T04:10:41.645Z,16.26
2017-06-25T04:11:37.884Z,16.26
2017-06-25T04:12:34.126Z,16.27
2017-06-25T04:13:30.354Z,16.28
2017-06-25T04:14:26.607Z,16.28
2017-06-25T04:15:22.847Z,16.30
2017-06-25T04:16:19.086Z,16.30
2017-06-25T04:17:15.322Z,16.30
2017-06-25T04:18:11.565Z,16.30
2017-06-25T04:19:07.810Z,16.33
2017-06-25T04:20:04.066Z,16.35
2017-06-25T04:21:00.302Z,16.37
2017-06-25T04:21:56.554Z,16.40
2017-06-25T04:22:52.785Z,16.42
2017-06-25T04:23:49.027Z,16.44
2017-06-25T04:24:45.279Z,16.49
2017-06-25T04:25:41.784Z,16.52
2017-06-25T04:26:38.064Z,16.54
2017-06-25T04:27:34.361Z,16.58
2017-06-25T04:28:30.638Z,16.61
2017-06-25T04:29:26.944Z,16.65
2017-06-25T04:30:23.166Z,16.68
2017-06-25T04:31:19.438Z,16.73
2017-06-25T04:32:15.662Z,16.75
2017-06-25T04:33:11.898Z,16.78
2017-06-25T04:34:08.189Z,16.82
2017-06-25T04:35:04.414Z,16.85
2017-06-25T04:36:00.674Z,16.88
2017-06-25T04:36:56.925Z,16.91
2017-06-25T04:37:53.165Z,16.95
2017-06-25T04:38:49.386Z,16.99
2017-06-25T04:39:45.626Z,17.04
2017-06-25T04:40:41.868Z,17.18
2017-06-25T04:41:38.142Z,17.47
2017-06-25T04:42:34.382Z,17.75
2017-06-25T04:43:30.619Z,17.98
2017-06-25T04:44:26.850Z,18.15
2017-06-25T04:45:23.078Z,18.30
2017-06-25T04:46:19.302Z,18.43
2017-06-25T04:47:15.554Z,18.53
2017-06-25T04:48:11.790Z,18.63
2017-06-25T04:49:08.032Z,18.70
2017-06-25T04:50:04.267Z,18.79
2017-06-25T04:51:00.506Z,18.86
2017-06-25T04:51:56.759Z,18.92
2017-06-25T04:52:53.018Z,18.98
2017-06-25T04:53:49.226Z,19.04
2017-06-25T04:54:45.466Z,19.10
2017-06-25T04:55:41.690Z,19.14
2017-06-25T04:56:37.922Z,19.20
2017-06-25T04:57:34.170Z,19.25
2017-06-25T04:58:30.406Z,19.31
2017-06-25T04:59:26.638Z,19.36
2017-06-25T05:00:22.866Z,19.41
2017-06-25T05:01:19.098Z,19.48
2017-06-25T05:02:15.334Z,19.51
2017-06-25T05:03:11.581Z,19.55
2017-06-25T05:04:07.815Z,19.60
2017-06-25T05:05:04.144Z,19.65
2017-06-25T05:06:00.462Z,19.69
2017-06-25T05:06:56.688Z,19.73
2017-06-25T05:07:52.918Z,19.77
2017-06-25T05:08:49.170Z,19.82
2017-06-25T05:09:45.398Z,19.85
2017-06-25T05:10:41.629Z,19.89
2017-06-25T05:11:37.870Z,19.93
2017-06-25T05:12:34.099Z,19.97
2017-06-25T05:13:30.330Z,20.00
2017-06-25T05:14:26.578Z,20.04
2017-06-25T05:15:22.817Z,20.08
2017-06-25T05:16:19.041Z,20.11
2017-06-25T05:17:15.278Z,20.14
2017-06-25T05:18:11.514Z,20.18
2017-06-25T05:19:07.766Z,20.22
2017-06-25T05:20:03.994Z,20.25
2017-06-25T05:21:00.255Z,20.28
2017-06-25T05:21:56.494Z,20.31
2017-06-25T05:22:52.722Z,20.34
2017-06-25T05:23:48.958Z,20.36
2017-06-25T05:24:45.206Z,20.39
2017-06-25T05:25:41.450Z,20.39
2017-06-25T05:26:37.687Z,20.43
2017-06-25T05:27:33.935Z,20.46
2017-06-25T05:28:30.178Z,20.48
2017-06-25T05:29:26.439Z,20.49
2017-06-25T05:30:22.662Z,20.52
2017-06-25T05:31:18.906Z,20.56
2017-06-25T05:32:15.146Z,20.57
2017-06-25T05:33:11.386Z,20.58
2017-06-25T05:34:07.614Z,20.62
2017-06-25T05:35:03.874Z,20.64
2017-06-25T05:36:00.098Z,20.66
2017-06-25T05:36:56.330Z,20.68
2017-06-25T05:37:52.555Z,20.71
2017-06-25T05:38:48.778Z,20.72
2017-06-25T05:39:45.014Z,20.74
2017-06-25T05:40:41.262Z,20.77
2017-06-25T05:41:37.507Z,20.79
2017-06-25T05:42:33.746Z,20.82
2017-06-25T05:43:29.994Z,20.85
2017-06-25T05:44:26.242Z,20.88
2017-06-25T05:45:22.486Z,20.91
2017-06-25T05:46:18.727Z,20.94
2017-06-25T05:47:14.978Z,20.96
2017-06-25T05:48:11.234Z,20.98
2017-06-25T05:49:07.473Z,21.00
2017-06-25T05:50:03.713Z,21.02
2017-06-25T05:50:59.970Z,21.04
2017-06-25T05:51:56.210Z,21.06
2017-06-25T05:52:52.446Z,21.06
2017-06-25T05:53:48.707Z,21.09
2017-06-25T05:54:44.946Z,21.10
2017-06-25T05:55:41.190Z,21.11
2017-06-25T05:56:37.442Z,21.11
2017-06-25T05:57:33.673Z,21.13
2017-06-25T05:58:29.910Z,21.15
2017-06-25T05:59:26.139Z,21.17
2017-06-25T06:00:22.394Z,21.18
2017-06-25T06:01:18.658Z,21.21
2017-06-25T06:02:14.906Z,21.22
2017-06-25T06:03:11.126Z,21.24
2017-06-25T06:04:07.374Z,21.27
2017-06-25T06:05:03.617Z,21.28
2017-06-25T06:05:59.858Z,21.30
2017-06-25T06:06:56.122Z,21.32
2017-06-25T06:07:52.360Z,21.36
2017-06-25T06:08:48.590Z,21.36
2017-06-25T06:09:44.825Z,21.38
2017-06-25T06:10:41.050Z,21.38
2017-06-25T06:11:37.294Z,21.40
2017-06-25T06:12:33.578Z,21.40
2017-06-25T06:13:29.830Z,21.41
2017-06-25T06:14:26.070Z,21.42
2017-06-25T06:15:22.306Z,21.43
2017-06-25T06:16:18.537Z,21.44
2017-06-25T06:17:14.786Z,21.44
2017-06-25T06:18:11.050Z,21.45
2017-06-25T06:19:07.342Z,21.46
2017-06-25T06:20:03.578Z,21.45
2017-06-25T06:20:59.817Z,21.45
2017-06-25T06:21:56.059Z,21.46
2017-06-25T06:22:52.313Z,21.45
2017-06-25T06:23:48.543Z,21.44
2017-06-25T06:24:44.791Z,21.45
2017-06-25T06:25:41.035Z,21.42
2017-06-25T06:26:37.286Z,21.42
2017-06-25T06:27:33.526Z,21.40
2017-06-25T06:28:29.786Z,21.39
2017-06-25T06:29:26.025Z,21.36
2017-06-25T06:30:22.263Z,21.35
2017-06-25T06:31:18.497Z,21.35
2017-06-25T06:32:14.727Z,21.31
2017-06-25T06:33:10.958Z,21.30
2017-06-25T06:34:07.210Z,21.29
2017-06-25T06:35:03.454Z,21.30
2017-06-25T06:35:59.695Z,21.30
2017-06-25T06:36:55.934Z,21.29
2017-06-25T06:37:52.158Z,21.29
2017-06-25T06:38:48.394Z,21.30
2017-06-25T06:39:44.650Z,21.30
2017-06-25T06:40:40.901Z,21.31
2017-06-25T06:41:37.138Z,21.31
2017-06-25T06:42:33.370Z,21.33
2017-06-25T06:43:29.609Z,21.33
2017-06-25T06:44:25.854Z,21.33
2017-06-25T06:45:22.091Z,21.32
2017-06-25T06:46:18.314Z,21.33
2017-06-25T06:47:14.543Z,21.33
2017-06-25T06:48:10.782Z,21.33
2017-06-25T06:49:07.022Z,21.35
2017-06-25T06:50:03.270Z,21.35
2017-06-25T06:50:59.510Z,21.36
2017-06-25T06:51:55.746Z,21.36
2017-06-25T06:52:51.970Z,21.36
2017-06-25T06:53:48.213Z,21.36
2017-06-25T06:54:44.474Z,21.39
2017-06-25T06:55:40.707Z,21.40
2017-06-25T06:56:36.950Z,21.41
2017-06-25T06:57:33.190Z,21.42
2017-06-25T06:58:29.426Z,21.43
2017-06-25T06:59:26.566Z,21.46
2017-06-25T07:00:22.862Z,21.48
2017-06-25T07:01:19.110Z,21.51
2017-06-25T07:02:15.354Z,21.53
2017-06-25T07:03:11.594Z,21.60
2017-06-25T07:04:07.838Z,21.64
2017-06-25T07:05:04.078Z,21.70
2017-06-25T07:06:00.355Z,21.76
2017-06-25T07:06:56.598Z,21.83
2017-06-25T07:07:52.853Z,21.92
2017-06-25T07:08:49.079Z,21.99
2017-06-25T07:09:45.313Z,22.08
2017-06-25T07:10:41.538Z,22.14
2017-06-25T07:11:37.794Z,22.23
2017-06-25T07:12:34.026Z,22.29
2017-06-25T07:13:30.302Z,22.37
2017-06-25T07:14:26.537Z,22.42
2017-06-25T07:15:22.762Z,22.47
2017-06-25T07:16:19.018Z,22.52
2017-06-25T07:17:15.270Z,22.58
2017-06-25T07:18:11.514Z,22.62
2017-06-25T07:19:07.757Z,22.66
2017-06-25T07:20:04.003Z,22.70
2017-06-25T07:21:00.246Z,22.73
2017-06-25T07:21:56.494Z,22.77
2017-06-25T07:22:52.726Z,22.81
2017-06-25T07:23:48.963Z,22.85
2017-06-25T07:24:45.202Z,22.89
2017-06-25T07:25:41.434Z,22.93
2017-06-25T07:26:37.678Z,22.96
2017-06-25T07:27:33.942Z,23.01
2017-06-25T07:28:30.174Z,23.03
2017-06-25T07:29:26.404Z,23.05
2017-06-25T07:30:22.629Z,23.09
2017-06-25T07:31:18.887Z,23.11
2017-06-25T07:32:15.127Z,23.13
2017-06-25T07:33:11.410Z,23.13
2017-06-25T07:34:07.646Z,23.15
2017-06-25T07:35:03.891Z,23.15
2017-06-25T07:36:00.130Z,23.16
2017-06-25T07:36:56.357Z,23.16
2017-06-25T07:37:52.594Z,23.18
2017-06-25T07:38:48.842Z,23.18
2017-06-25T07:39:45.090Z,23.20
2017-06-25T07:40:41.334Z,23.21
2017-06-25T07:41:37.569Z,23.23
2017-06-25T07:42:33.811Z,23.25
2017-06-25T07:43:30.074Z,23.28
2017-06-25T07:44:26.349Z,23.31
2017-06-25T07:45:22.590Z,23.34
2017-06-25T07:46:18.834Z,23.39
2017-06-25T07:47:15.058Z,23.42
2017-06-25T07:48:11.299Z,23.45
2017-06-25T07:49:07.562Z,23.50
2017-06-25T07:50:03.810Z,23.53
2017-06-25T07:51:00.061Z,23.56
2017-06-25T07:51:56.302Z,23.61
2017-06-25T07:52:52.537Z,23.64
2017-06-25T07:53:48.782Z,23.67
2017-06-25T07:54:45.052Z,23.69
2017-06-25T07:55:41.303Z,23.72
2017-06-25T07:56:37.541Z,23.75
2017-06-25T07:57:33.782Z,23.77
2017-06-25T07:58:30.006Z,23.79
2017-06-25T07:59:26.248Z,23.85
2017-06-25T08:00:22.498Z,23.87
2017-06-25T08:01:18.758Z,23.89
2017-06-25T08:02:15.097Z,23.91
2017-06-25T08:03:11.371Z,23.92
2017-06-25T08:04:07.726Z,23.93
2017-06-25T08:05:03.998Z,23.94
2017-06-25T08:06:00.232Z,23.96
2017-06-25T08:06:56.776Z,23.99
2017-06-25T08:07:53.017Z,24.01
2017-06-25T08:08:49.258Z,24.01
2017-06-25T08:09:45.536Z,24.03
2017-06-25T08:10:41.794Z,24.04
2017-06-25T08:11:38.038Z,24.05
2017-06-25T08:12:34.461Z,24.05
2017-06-25T08:13:31.689Z,24.07
2017-06-25T08:14:27.927Z,24.09
2017-06-25T08:15:24.178Z,24.11
2017-06-25T08:16:20.434Z,24.16
2017-06-25T08:17:17.038Z,24.20
2017-06-25T08:18:13.292Z,24.25
2017-06-25T08:19:09.540Z,24.29
2017-06-25T08:20:05.773Z,24.33
2017-06-25T08:21:02.010Z,24.36
2017-06-25T08:21:58.295Z,24.40
2017-06-25T08:22:54.553Z,24.40
2017-06-25T08:23:50.806Z,24.43
2017-06-25T08:24:47.070Z,24.44
2017-06-25T08:25:43.308Z,24.45
2017-06-25T08:26:39.553Z,24.47
2017-06-25T08:27:35.818Z,24.50
2017-06-25T08:28:32.062Z,24.51
2017-06-25T08:29:28.309Z,24.53
2017-06-25T08:30:24.553Z,24.56
2017-06-25T08:31:20.802Z,24.60
2017-06-25T08:32:17.037Z,24.64
2017-06-25T08:33:13.300Z,24.65
2017-06-25T08:34:09.594Z,24.69
2017-06-25T08:35:05.842Z,24.72
2017-06-25T08:36:02.094Z,24.74
2017-06-25T08:36:58.334Z,24.77
2017-06-25T08:37:54.595Z,24.81
2017-06-25T08:38:50.846Z,24.85
2017-06-25T08:39:47.090Z,24.88
2017-06-25T08:40:43.331Z,24.91
2017-06-25T08:41:39.574Z,24.94
2017-06-25T08:42:35.818Z,24.96
2017-06-25T08:43:32.085Z,24.99
2017-06-25T08:44:28.326Z,25.02
2017-06-25T08:45:24.574Z,25.07
2017-06-25T08:46:20.831Z,25.10
2017-06-25T08:47:17.081Z,25.16
2017-06-25T08:48:13.369Z,25.20
2017-06-25T08:49:09.622Z,25.24
2017-06-25T08:50:05.867Z,25.28
2017-06-25T08:51:02.103Z,25.32
2017-06-25T08:51:58.349Z,25.36
2017-06-25T08:52:54.594Z,25.41
2017-06-25T08:53:50.862Z,25.45
2017-06-25T08:54:47.102Z,25.48
2017-06-25T08:55:43.358Z,25.51
2017-06-25T08:56:39.594Z,25.54
2017-06-25T08:57:35.826Z,25.59
2017-06-25T08:58:32.085Z,25.63
2017-06-25T08:59:28.350Z,25.68
2017-06-25T09:00:24.609Z,25.72
2017-06-25T09:01:20.846Z,25.75
2017-06-25T09:02:17.090Z,25.79
2017-06-25T09:03:13.337Z,25.82
2017-06-25T09:04:09.570Z,25.85
2017-06-25T09:05:05.831Z,25.90
2017-06-25T09:06:02.078Z,25.90
2017-06-25T09:06:58.387Z,25.90
2017-06-25T09:07:54.638Z,25.89
2017-06-25T09:08:50.886Z,25.89
2017-06-25T09:09:47.137Z,25.89
2017-06-25T09:10:43.394Z,25.87
2017-06-25T09:11:39.642Z,25.85
2017-06-25T09:12:35.885Z,25.83
2017-06-25T09:13:32.130Z,25.82
2017-06-25T09:14:28.366Z,25.80
2017-06-25T09:15:24.630Z,25.78
2017-06-25T09:16:21.036Z,25.77
2017-06-25T09:17:17.270Z,25.78
2017-06-25T09:18:13.509Z,25.79
2017-06-25T09:19:09.746Z,25.80
2017-06-25T09:20:06.006Z,25.81
2017-06-25T09:21:02.281Z,25.83
2017-06-25T09:21:58.522Z,25.83
2017-06-25T09:22:54.778Z,25.81
2017-06-25T09:23:51.024Z,25.80
2017-06-25T09:24:47.258Z,25.79
2017-06-25T09:25:43.521Z,25.81
2017-06-25T09:26:39.789Z,25.85
2017-06-25T09:27:36.034Z,25.91
2017-06-25T09:28:32.278Z,25.96
2017-06-25T09:29:28.522Z,26.04
2017-06-25T09:30:24.762Z,26.10
2017-06-25T09:31:21.010Z,26.17
2017-06-25T09:32:17.274Z,26.24
2017-06-25T09:33:13.518Z,26.27
2017-06-25T09:34:09.762Z,26.31
2017-06-25T09:35:06.002Z,26.37
2017-06-25T09:36:02.275Z,26.48
2017-06-25T09:36:58.532Z,26.61
2017-06-25T09:37:54.765Z,26.77
2017-06-25T09:38:51.007Z,26.92
2017-06-25T09:39:47.246Z,27.06
2017-06-25T09:40:43.486Z,27.17
2017-06-25T09:41:39.725Z,27.26
2017-06-25T09:42:35.974Z,27.31
2017-06-25T09:43:32.221Z,27.34
2017-06-25T09:44:28.458Z,27.36
2017-06-25T09:45:24.702Z,27.37
2017-06-25T09:46:20.946Z,27.39
2017-06-25T09:47:17.198Z,27.40
2017-06-25T09:48:13.519Z,27.40
2017-06-25T09:49:09.787Z,27.40
2017-06-25T09:50:06.059Z,27.38
2017-06-25T09:51:02.311Z,27.33
2017-06-25T09:51:58.554Z,27.30
2017-06-25T09:52:54.830Z,27.24
2017-06-25T09:53:51.132Z,27.23
2017-06-25T09:54:47.368Z,27.21
2017-06-25T09:55:43.610Z,27.18
2017-06-25T09:56:39.869Z,27.13
2017-06-25T09:57:36.108Z,27.09
2017-06-25T09:58:32.362Z,27.02
2017-06-25T09:59:28.610Z,26.98
2017-06-25T10:00:24.864Z,26.95
2017-06-25T10:01:21.103Z,26.93
2017-06-25T10:02:17.350Z,26.89
2017-06-25T10:03:13.586Z,26.87
2017-06-25T10:04:09.849Z,26.85
2017-06-25T10:05:06.095Z,26.84
2017-06-25T10:06:02.338Z,26.82
2017-06-25T10:06:58.581Z,26.80
2017-06-25T10:07:54.822Z,26.78
2017-06-25T10:08:51.078Z,26.75
2017-06-25T10:09:47.317Z,26.69
2017-06-25T10:10:43.580Z,26.65
2017-06-25T10:11:43.827Z,26.59
2017-06-25T10:12:40.080Z,26.55
2017-06-25T10:13:36.314Z,26.51
2017-06-25T10:14:32.595Z,26.45
2017-06-25T10:15:28.870Z,26.39
2017-06-25T10:16:25.110Z,26.35
2017-06-25T10:17:21.350Z,26.31
2017-06-25T10:18:17.577Z,26.28
2017-06-25T10:19:13.860Z,26.29
2017-06-25T10:20:10.122Z,26.29
2017-06-25T10:21:06.353Z,26.31
2017-06-25T10:22:02.606Z,26.30
2017-06-25T10:22:58.851Z,26.33
2017-06-25T10:23:55.093Z,26.35
2017-06-25T10:24:51.351Z,26.36
2017-06-25T10:25:47.604Z,26.38
2017-06-25T10:26:43.846Z,26.39
2017-06-25T10:27:40.082Z,26.40
2017-06-25T10:28:36.326Z,26.40
2017-06-25T10:29:32.589Z,26.40
2017-06-25T10:30:28.826Z,26.40
2017-06-25T10:31:25.062Z,26.39
2017-06-25T10:32:21.316Z,26.40
2017-06-25T10:33:17.551Z,26.40
2017-06-25T10:34:13.790Z,26.40
2017-06-25T10:35:10.058Z,26.40
2017-06-25T10:36:06.295Z,26.40
2017-06-25T10:37:02.526Z,26.42
2017-06-25T10:37:58.770Z,26.45
2017-06-25T10:38:55.006Z,26.46
2017-06-25T10:39:51.242Z,26.48
2017-06-25T10:40:47.494Z,26.51
2017-06-25T10:41:43.734Z,26.52
2017-06-25T10:42:39.978Z,26.55
2017-06-25T10:43:36.254Z,26.56
2017-06-25T10:44:32.494Z,26.57
2017-06-25T10:45:28.733Z,26.59
2017-06-25T10:46:24.992Z,26.58
2017-06-25T10:47:21.270Z,26.59
2017-06-25T10:48:17.511Z,26.62
2017-06-25T10:49:13.763Z,26.65
2017-06-25T10:50:10.006Z,26.68
2017-06-25T10:51:06.251Z,26.73
2017-06-25T10:52:02.506Z,26.76
2017-06-25T10:52:58.763Z,26.79
2017-06-25T10:53:55.027Z,26.80
2017-06-25T10:54:51.290Z,26.83
2017-06-25T10:55:47.542Z,26.83
2017-06-25T10:56:43.806Z,26.84
2017-06-25T10:57:40.054Z,26.85
2017-06-25T10:58:36.294Z,26.86
2017-06-25T10:59:32.551Z,26.87
2017-06-25T11:00:28.786Z,26.88
2017-06-25T11:01:25.022Z,26.88
2017-06-25T11:02:21.291Z,26.88
2017-06-25T11:03:17.542Z,26.88
2017-06-25T11:04:13.790Z,26.88
2017-06-25T11:05:10.022Z,26.87
2017-06-25T11:06:06.623Z,26.90
2017-06-25T11:07:03.346Z,26.92
2017-06-25T11:07:59.598Z,26.96
2017-06-25T11:08:55.858Z,27.00
2017-06-25T11:09:52.094Z,27.02
2017-06-25T11:10:48.346Z,27.03
2017-06-25T11:11:44.589Z,27.03
2017-06-25T11:12:40.846Z,27.03
2017-06-25T11:13:37.108Z,27.02
2017-06-25T11:14:33.350Z,27.01
2017-06-25T11:15:29.594Z,27.01
2017-06-25T11:16:25.838Z,27.04
2017-06-25T11:17:22.087Z,27.10
2017-06-25T11:18:18.358Z,27.17
2017-06-25T11:19:14.618Z,27.24
2017-06-25T11:20:10.854Z,27.32
2017-06-25T11:21:07.113Z,27.40
2017-06-25T11:22:03.354Z,27.46
2017-06-25T11:22:59.598Z,27.52
2017-06-25T11:23:55.866Z,27.59
2017-06-25T11:24:52.117Z,27.67
2017-06-25T11:25:48.367Z,27.74
2017-06-25T11:26:44.618Z,27.79
2017-06-25T11:27:40.854Z,27.82
2017-06-25T11:28:37.098Z,27.86
2017-06-25T11:29:33.360Z,27.88
2017-06-25T11:30:29.595Z,27.93
2017-06-25T11:31:25.854Z,27.99
2017-06-25T11:32:22.094Z,28.09
2017-06-25T11:33:18.334Z,28.20
2017-06-25T11:34:14.570Z,28.27
2017-06-25T11:35:10.821Z,28.35
2017-06-25T11:36:07.058Z,28.43
2017-06-25T11:37:03.299Z,28.52
2017-06-25T11:37:59.543Z,28.61
2017-06-25T11:38:55.782Z,28.69
2017-06-25T11:39:52.026Z,28.80
2017-06-25T11:40:48.282Z,28.90
2017-06-25T11:41:44.555Z,28.99
2017-06-25T11:42:40.803Z,29.08
2017-06-25T11:43:37.045Z,29.15
2017-06-25T11:44:33.298Z,29.21
2017-06-25T11:45:29.534Z,29.28
2017-06-25T11:46:25.795Z,29.33
2017-06-25T11:47:22.035Z,29.37
2017-06-25T11:48:18.282Z,29.39
2017-06-25T11:49:14.521Z,29.39
2017-06-25T11:50:10.754Z,29.38
2017-06-25T11:51:07.009Z,29.37
2017-06-25T11:52:03.262Z,29.35
2017-06-25T11:52:59.506Z,29.37
2017-06-25T11:53:55.746Z,29.39
2017-06-25T11:54:51.998Z,29.42
2017-06-25T11:55:48.238Z,29.44
2017-06-25T11:56:44.493Z,29.44
2017-06-25T11:57:40.743Z,29.42
2017-06-25T11:58:36.973Z,29.40
2017-06-25T11:59:33.206Z,29.36
2017-06-25T12:00:29.446Z,29.31
2017-06-25T12:01:25.687Z,29.26
2017-06-25T12:02:21.963Z,29.23
2017-06-25T12:03:18.221Z,29.21
2017-06-25T12:04:14.853Z,29.22
2017-06-25T12:05:11.090Z,29.25